This is the latest recevied weather packets stored in our database for station/object IW9CSJ-13. If no packets are shown the sender has not sent any weather packets the latest 10 day(s).
| Time | Temp. | Humidity | Pressure | Rain* | Wind** | Luminosity | Snow |
|---|---|---|---|---|---|---|---|
| 1777878620 | 18.33° C | 48% | 1018.6 hPa | 0 mm | - | - | - |
| 1777876817 | 20° C | 41% | 1018.6 hPa | 0 mm | - | - | - |
| 1777875619 | 19.44° C | 38% | 1018.6 hPa | 0 mm | - | - | - |
| 1777873522 | 17.78° C | 40% | 1018.7 hPa | 0 mm | - | - | - |
| 1777872922 | 17.22° C | 40% | 1018.6 hPa | 0 mm | - | - | - |
| 1777872641 | 17.22° C | 40% | 1018.5 hPa | 0 mm | - | - | - |
| 1777872361 | 17.22° C | 39% | 1018.5 hPa | 0 mm | - | - | - |
| 1777872019 | 17.22° C | 39% | 1018.4 hPa | 0 mm | - | - | - |
| 1777869615 | 16.11° C | 41% | 1018.4 hPa | 0 mm | - | - | - |
| 1777869039 | 16.11° C | 41% | 1018.2 hPa | 0 mm | - | - | - |
| 1777868418 | 16.11° C | 41% | 1018.2 hPa | 0 mm | - | - | - |
| 1777867839 | 16.11° C | 41% | 1018.2 hPa | 0 mm | - | - | - |
| 1777866616 | 16.11° C | 40% | 1018.1 hPa | 0 mm | - | - | - |
| 1777866323 | 16.11° C | 41% | 1018.1 hPa | 0 mm | - | - | - |
| 1777866019 | 16.11° C | 41% | 1018.1 hPa | 0 mm | - | - | - |
| 1777865120 | 16.11° C | 41% | 1018.3 hPa | 0 mm | - | - | - |
| 1777864224 | 15.56° C | 41% | 1018.3 hPa | 0 mm | - | - | - |
| 1777862717 | 15.56° C | 40% | 1018.3 hPa | 0 mm | - | - | - |
| 1777861525 | 15.56° C | 41% | 1018.4 hPa | 0 mm | - | - | - |
| 1777860320 | 15.56° C | 41% | 1018.3 hPa | 0 mm | - | - | - |
| 1777856741 | 15° C | 43% | 1018.4 hPa | 0 mm | - | - | - |
| 1777855820 | 14.44° C | 44% | 1018.7 hPa | 0 mm | - | - | - |
| 1777854321 | 14.44° C | 47% | 1018.6 hPa | 0 mm | - | - | - |
| 1777853716 | 14.44° C | 47% | 1018.7 hPa | 0 mm | - | - | - |
| 1777853120 | 15° C | 46% | 1018.7 hPa | 0 mm | - | - | - |
* Rain latest hour (hover to see other rain measurements)
** Current wind speed in m/s (hover to see current wind gust speed)